sensor_id;sensor_type;location;lat;lon;timestamp;P1;durP1;ratioP1;P2;durP2;ratioP2
37777;SDS011;23615;51.506;7.678;2023-04-06T00:00:45;7.43;;;6.63;;
37777;SDS011;23615;51.506;7.678;2023-04-06T00:03:10;7.63;;;6.83;;
37777;SDS011;23615;51.506;7.678;2023-04-06T00:05:35;7.67;;;6.43;;
37777;SDS011;23615;51.506;7.678;2023-04-06T00:08:01;6.73;;;6.03;;
37777;SDS011;23615;51.506;7.678;2023-04-06T00:10:26;7.97;;;6.57;;
37777;SDS011;23615;51.506;7.678;2023-04-06T00:12:52;7.88;;;6.80;;
37777;SDS011;23615;51.506;7.678;2023-04-06T00:15:17;7.17;;;6.47;;
37777;SDS011;23615;51.506;7.678;2023-04-06T00:17:43;7.30;;;6.60;;
37777;SDS011;23615;51.506;7.678;2023-04-06T00:20:08;7.77;;;6.97;;
37777;SDS011;23615;51.506;7.678;2023-04-06T00:22:34;7.85;;;7.00;;
37777;SDS011;23615;51.506;7.678;2023-04-06T00:24:59;7.80;;;7.00;;
37777;SDS011;23615;51.506;7.678;2023-04-06T00:27:25;7.70;;;6.90;;
37777;SDS011;23615;51.506;7.678;2023-04-06T00:29:50;8.33;;;7.23;;
37777;SDS011;23615;51.506;7.678;2023-04-06T00:32:15;7.37;;;6.60;;
37777;SDS011;23615;51.506;7.678;2023-04-06T00:34:41;7.97;;;7.00;;
37777;SDS011;23615;51.506;7.678;2023-04-06T00:37:06;7.70;;;6.90;;
37777;SDS011;23615;51.506;7.678;2023-04-06T00:39:31;7.93;;;6.70;;
37777;SDS011;23615;51.506;7.678;2023-04-06T00:41:56;7.63;;;6.83;;
37777;SDS011;23615;51.506;7.678;2023-04-06T00:44:22;7.43;;;6.55;;
37777;SDS011;23615;51.506;7.678;2023-04-06T00:46:47;8.35;;;7.03;;
37777;SDS011;23615;51.506;7.678;2023-04-06T00:49:13;6.83;;;6.07;;
37777;SDS011;23615;51.506;7.678;2023-04-06T00:51:38;7.43;;;6.63;;
37777;SDS011;23615;51.506;7.678;2023-04-06T00:54:03;6.93;;;6.00;;
37777;SDS011;23615;51.506;7.678;2023-04-06T00:56:29;7.30;;;6.10;;
37777;SDS011;23615;51.506;7.678;2023-04-06T00:58:54;7.17;;;6.47;;
37777;SDS011;23615;51.506;7.678;2023-04-06T01:01:20;8.40;;;6.97;;
37777;SDS011;23615;51.506;7.678;2023-04-06T01:03:45;7.83;;;6.30;;
37777;SDS011;23615;51.506;7.678;2023-04-06T01:06:14;6.32;;;5.60;;
37777;SDS011;23615;51.506;7.678;2023-04-06T01:08:39;7.80;;;5.97;;
37777;SDS011;23615;51.506;7.678;2023-04-06T01:11:04;8.27;;;6.57;;
37777;SDS011;23615;51.506;7.678;2023-04-06T01:13:30;6.55;;;5.90;;
37777;SDS011;23615;51.506;7.678;2023-04-06T01:15:55;6.47;;;5.40;;
37777;SDS011;23615;51.506;7.678;2023-04-06T01:18:27;8.17;;;5.97;;
37777;SDS011;23615;51.506;7.678;2023-04-06T01:20:53;6.43;;;5.70;;
37777;SDS011;23615;51.506;7.678;2023-04-06T01:23:18;6.10;;;4.97;;
37777;SDS011;23615;51.506;7.678;2023-04-06T01:25:44;5.50;;;4.93;;
37777;SDS011;23615;51.506;7.678;2023-04-06T01:28:09;5.70;;;5.20;;
37777;SDS011;23615;51.506;7.678;2023-04-06T01:30:34;6.93;;;5.67;;
37777;SDS011;23615;51.506;7.678;2023-04-06T01:33:00;6.97;;;5.60;;
37777;SDS011;23615;51.506;7.678;2023-04-06T01:35:26;6.10;;;5.50;;
37777;SDS011;23615;51.506;7.678;2023-04-06T01:37:52;5.78;;;5.18;;
37777;SDS011;23615;51.506;7.678;2023-04-06T01:40:17;5.47;;;4.90;;
37777;SDS011;23615;51.506;7.678;2023-04-06T01:42:42;6.90;;;5.30;;
37777;SDS011;23615;51.506;7.678;2023-04-06T01:45:08;5.40;;;4.87;;
37777;SDS011;23615;51.506;7.678;2023-04-06T01:47:33;5.05;;;4.55;;
37777;SDS011;23615;51.506;7.678;2023-04-06T01:49:59;6.27;;;4.70;;
37777;SDS011;23615;51.506;7.678;2023-04-06T01:52:24;5.70;;;5.10;;
37777;SDS011;23615;51.506;7.678;2023-04-06T01:54:49;5.03;;;4.53;;
37777;SDS011;23615;51.506;7.678;2023-04-06T01:57:15;6.33;;;4.90;;
37777;SDS011;23615;51.506;7.678;2023-04-06T01:59:40;5.63;;;4.60;;
37777;SDS011;23615;51.506;7.678;2023-04-06T02:02:05;5.23;;;4.70;;
37777;SDS011;23615;51.506;7.678;2023-04-06T02:04:31;4.80;;;4.30;;
37777;SDS011;23615;51.506;7.678;2023-04-06T02:06:56;6.17;;;4.17;;
37777;SDS011;23615;51.506;7.678;2023-04-06T02:09:21;4.63;;;4.23;;
37777;SDS011;23615;51.506;7.678;2023-04-06T02:11:46;5.67;;;5.07;;
37777;SDS011;23615;51.506;7.678;2023-04-06T02:14:12;5.07;;;4.37;;
37777;SDS011;23615;51.506;7.678;2023-04-06T02:16:37;5.30;;;4.47;;
37777;SDS011;23615;51.506;7.678;2023-04-06T02:19:02;4.97;;;4.57;;
37777;SDS011;23615;51.506;7.678;2023-04-06T02:21:28;4.87;;;4.37;;
37777;SDS011;23615;51.506;7.678;2023-04-06T02:23:53;4.50;;;4.07;;
37777;SDS011;23615;51.506;7.678;2023-04-06T02:26:18;4.63;;;4.22;;
37777;SDS011;23615;51.506;7.678;2023-04-06T02:28:45;3.95;;;3.65;;
37777;SDS011;23615;51.506;7.678;2023-04-06T02:31:10;4.10;;;3.70;;
37777;SDS011;23615;51.506;7.678;2023-04-06T02:33:36;4.00;;;3.60;;
37777;SDS011;23615;51.506;7.678;2023-04-06T02:36:01;4.72;;;4.25;;
37777;SDS011;23615;51.506;7.678;2023-04-06T02:38:27;4.53;;;3.60;;
37777;SDS011;23615;51.506;7.678;2023-04-06T02:40:52;4.17;;;3.47;;
37777;SDS011;23615;51.506;7.678;2023-04-06T02:43:18;6.10;;;4.07;;
37777;SDS011;23615;51.506;7.678;2023-04-06T02:45:44;4.15;;;3.78;;
37777;SDS011;23615;51.506;7.678;2023-04-06T02:48:09;4.17;;;3.77;;
37777;SDS011;23615;51.506;7.678;2023-04-06T02:50:35;4.38;;;3.97;;
37777;SDS011;23615;51.506;7.678;2023-04-06T02:53:00;4.82;;;3.75;;
37777;SDS011;23615;51.506;7.678;2023-04-06T02:55:25;4.90;;;4.40;;
37777;SDS011;23615;51.506;7.678;2023-04-06T02:57:51;5.67;;;4.97;;
37777;SDS011;23615;51.506;7.678;2023-04-06T03:00:16;5.03;;;4.53;;
37777;SDS011;23615;51.506;7.678;2023-04-06T03:02:42;4.83;;;4.43;;
37777;SDS011;23615;51.506;7.678;2023-04-06T03:05:07;3.50;;;3.20;;
37777;SDS011;23615;51.506;7.678;2023-04-06T03:07:32;3.93;;;3.63;;
37777;SDS011;23615;51.506;7.678;2023-04-06T03:09:58;4.03;;;3.70;;
37777;SDS011;23615;51.506;7.678;2023-04-06T03:12:23;4.22;;;3.85;;
37777;SDS011;23615;51.506;7.678;2023-04-06T03:14:48;5.15;;;4.50;;
37777;SDS011;23615;51.506;7.678;2023-04-06T03:17:13;4.57;;;4.18;;
37777;SDS011;23615;51.506;7.678;2023-04-06T03:19:39;4.47;;;3.40;;
37777;SDS011;23615;51.506;7.678;2023-04-06T03:22:05;4.53;;;4.10;;
37777;SDS011;23615;51.506;7.678;2023-04-06T03:24:30;4.35;;;3.95;;
37777;SDS011;23615;51.506;7.678;2023-04-06T03:26:55;4.75;;;4.30;;
37777;SDS011;23615;51.506;7.678;2023-04-06T03:29:21;5.80;;;5.13;;
37777;SDS011;23615;51.506;7.678;2023-04-06T03:31:46;4.53;;;4.13;;
37777;SDS011;23615;51.506;7.678;2023-04-06T03:34:12;5.43;;;4.83;;
37777;SDS011;23615;51.506;7.678;2023-04-06T03:36:37;5.63;;;4.57;;
37777;SDS011;23615;51.506;7.678;2023-04-06T03:39:02;5.07;;;4.45;;
37777;SDS011;23615;51.506;7.678;2023-04-06T03:41:28;5.50;;;4.65;;
37777;SDS011;23615;51.506;7.678;2023-04-06T03:43:53;5.20;;;4.70;;
37777;SDS011;23615;51.506;7.678;2023-04-06T03:46:18;4.63;;;4.17;;
37777;SDS011;23615;51.506;7.678;2023-04-06T03:48:45;4.73;;;4.10;;
37777;SDS011;23615;51.506;7.678;2023-04-06T03:51:10;5.30;;;4.80;;
37777;SDS011;23615;51.506;7.678;2023-04-06T03:53:35;5.97;;;4.67;;
37777;SDS011;23615;51.506;7.678;2023-04-06T03:56:02;5.15;;;4.65;;
37777;SDS011;23615;51.506;7.678;2023-04-06T03:58:27;5.60;;;4.53;;
37777;SDS011;23615;51.506;7.678;2023-04-06T04:00:52;6.47;;;4.83;;
37777;SDS011;23615;51.506;7.678;2023-04-06T04:03:18;6.27;;;4.57;;
37777;SDS011;23615;51.506;7.678;2023-04-06T04:05:43;5.23;;;4.73;;
37777;SDS011;23615;51.506;7.678;2023-04-06T04:08:08;5.28;;;4.78;;
37777;SDS011;23615;51.506;7.678;2023-04-06T04:10:33;5.15;;;4.57;;
37777;SDS011;23615;51.506;7.678;2023-04-06T04:12:59;6.15;;;5.53;;
37777;SDS011;23615;51.506;7.678;2023-04-06T04:15:24;5.60;;;5.00;;
37777;SDS011;23615;51.506;7.678;2023-04-06T04:17:50;5.17;;;4.67;;
37777;SDS011;23615;51.506;7.678;2023-04-06T04:20:15;4.73;;;4.10;;
37777;SDS011;23615;51.506;7.678;2023-04-06T04:22:41;4.80;;;4.40;;
37777;SDS011;23615;51.506;7.678;2023-04-06T04:25:07;5.67;;;4.93;;
37777;SDS011;23615;51.506;7.678;2023-04-06T04:27:32;4.78;;;4.28;;
37777;SDS011;23615;51.506;7.678;2023-04-06T04:29:58;4.73;;;4.10;;
37777;SDS011;23615;51.506;7.678;2023-04-06T04:32:23;4.37;;;3.97;;
37777;SDS011;23615;51.506;7.678;2023-04-06T04:34:52;4.37;;;3.97;;
37777;SDS011;23615;51.506;7.678;2023-04-06T04:37:17;4.35;;;3.85;;
37777;SDS011;23615;51.506;7.678;2023-04-06T04:39:43;4.33;;;3.90;;
37777;SDS011;23615;51.506;7.678;2023-04-06T04:42:08;4.90;;;3.73;;
37777;SDS011;23615;51.506;7.678;2023-04-06T04:44:33;4.93;;;4.43;;
37777;SDS011;23615;51.506;7.678;2023-04-06T04:46:59;3.90;;;3.57;;
37777;SDS011;23615;51.506;7.678;2023-04-06T04:49:24;4.80;;;4.30;;
37777;SDS011;23615;51.506;7.678;2023-04-06T04:51:49;4.70;;;4.03;;
37777;SDS011;23615;51.506;7.678;2023-04-06T04:54:17;4.00;;;3.70;;
37777;SDS011;23615;51.506;7.678;2023-04-06T04:56:42;3.83;;;3.50;;
37777;SDS011;23615;51.506;7.678;2023-04-06T04:59:08;4.40;;;4.00;;
37777;SDS011;23615;51.506;7.678;2023-04-06T05:01:33;4.60;;;3.63;;
37777;SDS011;23615;51.506;7.678;2023-04-06T05:03:59;4.17;;;3.60;;
37777;SDS011;23615;51.506;7.678;2023-04-06T05:06:24;3.80;;;3.40;;
37777;SDS011;23615;51.506;7.678;2023-04-06T05:08:50;4.33;;;3.93;;
37777;SDS011;23615;51.506;7.678;2023-04-06T05:11:15;4.10;;;3.63;;
37777;SDS011;23615;51.506;7.678;2023-04-06T05:13:41;4.03;;;3.70;;
37777;SDS011;23615;51.506;7.678;2023-04-06T05:16:06;4.10;;;3.67;;
37777;SDS011;23615;51.506;7.678;2023-04-06T05:18:31;7.00;;;5.87;;
37777;SDS011;23615;51.506;7.678;2023-04-06T05:20:57;16.10;;;13.80;;
37777;SDS011;23615;51.506;7.678;2023-04-06T05:23:22;12.13;;;10.80;;
37777;SDS011;23615;51.506;7.678;2023-04-06T05:25:47;8.90;;;8.00;;
37777;SDS011;23615;51.506;7.678;2023-04-06T05:28:13;7.47;;;6.73;;
37777;SDS011;23615;51.506;7.678;2023-04-06T05:30:40;6.32;;;5.50;;
37777;SDS011;23615;51.506;7.678;2023-04-06T05:33:05;5.53;;;5.00;;
37777;SDS011;23615;51.506;7.678;2023-04-06T05:35:31;5.30;;;4.50;;
37777;SDS011;23615;51.506;7.678;2023-04-06T05:37:56;5.17;;;4.57;;
37777;SDS011;23615;51.506;7.678;2023-04-06T05:40:21;5.40;;;4.90;;
37777;SDS011;23615;51.506;7.678;2023-04-06T05:42:46;4.40;;;3.40;;
37777;SDS011;23615;51.506;7.678;2023-04-06T05:45:12;5.30;;;3.80;;
37777;SDS011;23615;51.506;7.678;2023-04-06T05:47:42;4.20;;;3.90;;
37777;SDS011;23615;51.506;7.678;2023-04-06T05:50:09;3.72;;;3.28;;
37777;SDS011;23615;51.506;7.678;2023-04-06T05:52:35;4.47;;;3.87;;
37777;SDS011;23615;51.506;7.678;2023-04-06T05:55:00;4.47;;;3.80;;
37777;SDS011;23615;51.506;7.678;2023-04-06T05:57:25;3.45;;;3.15;;
37777;SDS011;23615;51.506;7.678;2023-04-06T05:59:51;4.07;;;3.67;;
37777;SDS011;23615;51.506;7.678;2023-04-06T06:02:16;4.37;;;3.53;;
37777;SDS011;23615;51.506;7.678;2023-04-06T06:04:41;3.63;;;3.20;;
37777;SDS011;23615;51.506;7.678;2023-04-06T06:07:06;3.27;;;2.97;;
37777;SDS011;23615;51.506;7.678;2023-04-06T06:09:32;3.20;;;2.90;;
37777;SDS011;23615;51.506;7.678;2023-04-06T06:11:57;4.33;;;3.50;;
37777;SDS011;23615;51.506;7.678;2023-04-06T06:14:23;3.33;;;2.73;;
37777;SDS011;23615;51.506;7.678;2023-04-06T06:16:48;4.30;;;3.10;;
37777;SDS011;23615;51.506;7.678;2023-04-06T06:19:13;3.47;;;2.78;;
37777;SDS011;23615;51.506;7.678;2023-04-06T06:21:39;4.25;;;3.03;;
37777;SDS011;23615;51.506;7.678;2023-04-06T06:24:04;3.25;;;2.95;;
37777;SDS011;23615;51.506;7.678;2023-04-06T06:26:30;3.23;;;2.93;;
37777;SDS011;23615;51.506;7.678;2023-04-06T06:28:56;4.60;;;3.10;;
37777;SDS011;23615;51.506;7.678;2023-04-06T06:31:21;4.27;;;3.17;;
37777;SDS011;23615;51.506;7.678;2023-04-06T06:33:47;3.97;;;3.55;;
37777;SDS011;23615;51.506;7.678;2023-04-06T06:36:19;4.32;;;3.50;;
37777;SDS011;23615;51.506;7.678;2023-04-06T06:38:45;4.57;;;3.38;;
37777;SDS011;23615;51.506;7.678;2023-04-06T06:41:10;3.63;;;3.20;;
37777;SDS011;23615;51.506;7.678;2023-04-06T06:43:36;4.57;;;3.50;;
37777;SDS011;23615;51.506;7.678;2023-04-06T06:46:01;4.03;;;3.70;;
37777;SDS011;23615;51.506;7.678;2023-04-06T06:48:27;3.75;;;3.45;;
37777;SDS011;23615;51.506;7.678;2023-04-06T06:50:52;3.77;;;3.40;;
37777;SDS011;23615;51.506;7.678;2023-04-06T06:53:18;4.53;;;3.90;;
37777;SDS011;23615;51.506;7.678;2023-04-06T06:55:44;4.72;;;3.55;;
37777;SDS011;23615;51.506;7.678;2023-04-06T06:58:10;5.28;;;4.28;;
37777;SDS011;23615;51.506;7.678;2023-04-06T07:00:35;6.07;;;4.70;;
37777;SDS011;23615;51.506;7.678;2023-04-06T07:03:00;5.00;;;4.20;;
37777;SDS011;23615;51.506;7.678;2023-04-06T07:05:26;5.90;;;3.97;;
37777;SDS011;23615;51.506;7.678;2023-04-06T07:07:51;4.57;;;4.17;;
37777;SDS011;23615;51.506;7.678;2023-04-06T07:10:17;5.57;;;4.40;;
37777;SDS011;23615;51.506;7.678;2023-04-06T07:12:42;6.30;;;4.70;;
37777;SDS011;23615;51.506;7.678;2023-04-06T07:15:07;5.38;;;4.35;;
37777;SDS011;23615;51.506;7.678;2023-04-06T07:17:33;6.63;;;5.30;;
37777;SDS011;23615;51.506;7.678;2023-04-06T07:19:59;5.23;;;4.70;;
37777;SDS011;23615;51.506;7.678;2023-04-06T07:22:24;6.17;;;4.90;;
37777;SDS011;23615;51.506;7.678;2023-04-06T07:24:49;5.18;;;4.68;;
37777;SDS011;23615;51.506;7.678;2023-04-06T07:27:15;7.07;;;5.72;;
37777;SDS011;23615;51.506;7.678;2023-04-06T07:29:41;5.27;;;4.30;;
37777;SDS011;23615;51.506;7.678;2023-04-06T07:32:08;4.50;;;4.10;;
37777;SDS011;23615;51.506;7.678;2023-04-06T07:34:33;6.95;;;5.35;;
37777;SDS011;23615;51.506;7.678;2023-04-06T07:36:58;8.07;;;5.77;;
37777;SDS011;23615;51.506;7.678;2023-04-06T07:39:25;6.50;;;5.35;;
37777;SDS011;23615;51.506;7.678;2023-04-06T07:41:51;5.50;;;4.80;;
37777;SDS011;23615;51.506;7.678;2023-04-06T07:44:17;6.80;;;5.30;;
37777;SDS011;23615;51.506;7.678;2023-04-06T07:46:42;5.53;;;4.87;;
37777;SDS011;23615;51.506;7.678;2023-04-06T07:49:07;5.67;;;4.20;;
37777;SDS011;23615;51.506;7.678;2023-04-06T07:51:35;6.20;;;4.93;;
37777;SDS011;23615;51.506;7.678;2023-04-06T07:54:02;6.32;;;4.18;;
37777;SDS011;23615;51.506;7.678;2023-04-06T07:56:27;6.13;;;4.77;;
37777;SDS011;23615;51.506;7.678;2023-04-06T07:58:52;5.73;;;4.60;;
37777;SDS011;23615;51.506;7.678;2023-04-06T08:01:20;6.40;;;4.88;;
37777;SDS011;23615;51.506;7.678;2023-04-06T08:03:45;6.27;;;4.50;;
37777;SDS011;23615;51.506;7.678;2023-04-06T08:06:11;5.60;;;4.83;;
37777;SDS011;23615;51.506;7.678;2023-04-06T08:08:36;5.77;;;4.93;;
37777;SDS011;23615;51.506;7.678;2023-04-06T08:11:02;6.30;;;4.77;;
37777;SDS011;23615;51.506;7.678;2023-04-06T08:13:27;6.20;;;4.90;;
37777;SDS011;23615;51.506;7.678;2023-04-06T08:15:53;9.27;;;5.47;;
37777;SDS011;23615;51.506;7.678;2023-04-06T08:18:18;5.70;;;5.15;;
37777;SDS011;23615;51.506;7.678;2023-04-06T08:20:43;9.13;;;5.67;;
37777;SDS011;23615;51.506;7.678;2023-04-06T08:23:09;6.17;;;4.37;;
37777;SDS011;23615;51.506;7.678;2023-04-06T08:25:36;5.45;;;4.82;;
37777;SDS011;23615;51.506;7.678;2023-04-06T08:28:01;4.97;;;4.47;;
37777;SDS011;23615;51.506;7.678;2023-04-06T08:30:27;9.32;;;5.53;;
37777;SDS011;23615;51.506;7.678;2023-04-06T08:32:52;4.80;;;4.13;;
37777;SDS011;23615;51.506;7.678;2023-04-06T08:35:18;4.53;;;4.10;;
37777;SDS011;23615;51.506;7.678;2023-04-06T08:37:44;7.77;;;5.07;;
37777;SDS011;23615;51.506;7.678;2023-04-06T08:40:10;5.40;;;4.60;;
37777;SDS011;23615;51.506;7.678;2023-04-06T08:42:39;5.73;;;4.83;;
37777;SDS011;23615;51.506;7.678;2023-04-06T08:45:08;5.82;;;4.95;;
37777;SDS011;23615;51.506;7.678;2023-04-06T08:47:34;7.80;;;5.68;;
37777;SDS011;23615;51.506;7.678;2023-04-06T08:50:03;7.28;;;5.13;;
37777;SDS011;23615;51.506;7.678;2023-04-06T08:52:29;7.32;;;4.85;;
37777;SDS011;23615;51.506;7.678;2023-04-06T08:54:57;6.07;;;4.88;;
37777;SDS011;23615;51.506;7.678;2023-04-06T08:57:22;5.27;;;4.47;;
37777;SDS011;23615;51.506;7.678;2023-04-06T08:59:48;6.35;;;5.32;;
37777;SDS011;23615;51.506;7.678;2023-04-06T09:02:16;6.28;;;4.63;;
37777;SDS011;23615;51.506;7.678;2023-04-06T09:04:43;7.45;;;5.35;;
37777;SDS011;23615;51.506;7.678;2023-04-06T09:07:11;6.13;;;5.07;;
37777;SDS011;23615;51.506;7.678;2023-04-06T09:09:36;6.10;;;5.03;;
37777;SDS011;23615;51.506;7.678;2023-04-06T09:12:02;7.05;;;5.40;;
37777;SDS011;23615;51.506;7.678;2023-04-06T09:14:37;7.38;;;5.30;;
37777;SDS011;23615;51.506;7.678;2023-04-06T09:17:03;6.18;;;4.82;;
37777;SDS011;23615;51.506;7.678;2023-04-06T09:19:29;7.20;;;4.93;;
37777;SDS011;23615;51.506;7.678;2023-04-06T09:22:01;6.70;;;5.05;;
37777;SDS011;23615;51.506;7.678;2023-04-06T09:24:39;9.05;;;6.63;;
37777;SDS011;23615;51.506;7.678;2023-04-06T09:27:05;8.88;;;6.47;;
37777;SDS011;23615;51.506;7.678;2023-04-06T09:29:30;6.20;;;5.37;;
37777;SDS011;23615;51.506;7.678;2023-04-06T09:32:06;6.57;;;5.30;;
37777;SDS011;23615;51.506;7.678;2023-04-06T09:34:32;7.90;;;5.28;;
37777;SDS011;23615;51.506;7.678;2023-04-06T09:36:58;6.57;;;5.10;;
37777;SDS011;23615;51.506;7.678;2023-04-06T09:39:24;7.20;;;6.00;;
37777;SDS011;23615;51.506;7.678;2023-04-06T09:41:53;5.55;;;5.03;;
37777;SDS011;23615;51.506;7.678;2023-04-06T09:44:19;9.68;;;5.70;;
37777;SDS011;23615;51.506;7.678;2023-04-06T09:46:45;8.03;;;5.67;;
37777;SDS011;23615;51.506;7.678;2023-04-06T09:49:12;6.53;;;4.75;;
37777;SDS011;23615;51.506;7.678;2023-04-06T09:51:39;5.28;;;4.72;;
37777;SDS011;23615;51.506;7.678;2023-04-06T09:54:07;7.25;;;5.43;;
37777;SDS011;23615;51.506;7.678;2023-04-06T09:59:37;7.65;;;5.82;;
37777;SDS011;23615;51.506;7.678;2023-04-06T10:02:12;7.20;;;5.80;;
37777;SDS011;23615;51.506;7.678;2023-04-06T10:04:50;7.60;;;6.00;;
37777;SDS011;23615;51.506;7.678;2023-04-06T10:07:21;6.37;;;5.17;;
37777;SDS011;23615;51.506;7.678;2023-04-06T10:09:47;9.40;;;6.15;;
37777;SDS011;23615;51.506;7.678;2023-04-06T10:12:14;6.70;;;5.18;;
37777;SDS011;23615;51.506;7.678;2023-04-06T10:14:40;6.53;;;5.50;;
37777;SDS011;23615;51.506;7.678;2023-04-06T10:20:05;6.90;;;5.38;;
37777;SDS011;23615;51.506;7.678;2023-04-06T10:22:45;9.70;;;6.10;;
37777;SDS011;23615;51.506;7.678;2023-04-06T10:25:27;7.15;;;6.00;;
37777;SDS011;23615;51.506;7.678;2023-04-06T10:28:00;8.23;;;5.88;;
37777;SDS011;23615;51.506;7.678;2023-04-06T10:30:29;8.50;;;6.40;;
37777;SDS011;23615;51.506;7.678;2023-04-06T10:32:55;8.32;;;6.47;;
37777;SDS011;23615;51.506;7.678;2023-04-06T10:35:21;8.53;;;6.43;;
37777;SDS011;23615;51.506;7.678;2023-04-06T10:37:47;12.90;;;7.10;;
37777;SDS011;23615;51.506;7.678;2023-04-06T10:40:26;9.70;;;7.40;;
37777;SDS011;23615;51.506;7.678;2023-04-06T10:42:55;11.68;;;8.30;;
37777;SDS011;23615;51.506;7.678;2023-04-06T10:45:31;10.40;;;7.93;;
37777;SDS011;23615;51.506;7.678;2023-04-06T10:47:57;10.50;;;7.85;;
37777;SDS011;23615;51.506;7.678;2023-04-06T10:50:22;13.47;;;8.90;;
37777;SDS011;23615;51.506;7.678;2023-04-06T10:52:58;13.83;;;9.53;;
37777;SDS011;23615;51.506;7.678;2023-04-06T10:55:26;13.65;;;8.75;;
37777;SDS011;23615;51.506;7.678;2023-04-06T10:57:53;13.80;;;10.15;;
37777;SDS011;23615;51.506;7.678;2023-04-06T11:00:18;14.27;;;10.15;;
37777;SDS011;23615;51.506;7.678;2023-04-06T11:02:45;14.00;;;10.18;;
37777;SDS011;23615;51.506;7.678;2023-04-06T11:05:11;13.65;;;9.40;;
37777;SDS011;23615;51.506;7.678;2023-04-06T11:07:39;13.07;;;9.68;;
37777;SDS011;23615;51.506;7.678;2023-04-06T11:10:05;13.98;;;9.90;;
37777;SDS011;23615;51.506;7.678;2023-04-06T11:12:31;12.10;;;9.18;;
37777;SDS011;23615;51.506;7.678;2023-04-06T11:14:57;13.85;;;10.02;;
37777;SDS011;23615;51.506;7.678;2023-04-06T11:17:31;14.15;;;10.63;;
37777;SDS011;23615;51.506;7.678;2023-04-06T11:19:58;14.63;;;10.95;;
37777;SDS011;23615;51.506;7.678;2023-04-06T11:22:24;15.10;;;10.73;;
37777;SDS011;23615;51.506;7.678;2023-04-06T11:24:50;13.40;;;10.20;;
37777;SDS011;23615;51.506;7.678;2023-04-06T11:27:16;17.10;;;11.32;;
37777;SDS011;23615;51.506;7.678;2023-04-06T11:29:42;15.00;;;10.95;;
37777;SDS011;23615;51.506;7.678;2023-04-06T11:32:08;13.10;;;10.13;;
37777;SDS011;23615;51.506;7.678;2023-04-06T11:34:38;28.50;;;16.67;;
37777;SDS011;23615;51.506;7.678;2023-04-06T11:37:08;15.57;;;10.07;;
37777;SDS011;23615;51.506;7.678;2023-04-06T11:40:08;15.60;;;9.88;;
37777;SDS011;23615;51.506;7.678;2023-04-06T11:42:27;12.65;;;10.32;;
37777;SDS011;23615;51.506;7.678;2023-04-06T11:44:55;13.57;;;10.57;;
37777;SDS011;23615;51.506;7.678;2023-04-06T11:47:29;14.20;;;10.77;;
37777;SDS011;23615;51.506;7.678;2023-04-06T11:49:56;12.50;;;10.23;;
37777;SDS011;23615;51.506;7.678;2023-04-06T11:52:30;13.40;;;10.35;;
37777;SDS011;23615;51.506;7.678;2023-04-06T11:54:56;15.27;;;11.10;;
37777;SDS011;23615;51.506;7.678;2023-04-06T11:57:22;11.95;;;9.02;;
37777;SDS011;23615;51.506;7.678;2023-04-06T11:59:50;12.13;;;9.35;;
37777;SDS011;23615;51.506;7.678;2023-04-06T12:02:15;13.17;;;10.03;;
37777;SDS011;23615;51.506;7.678;2023-04-06T12:04:41;13.07;;;10.20;;
37777;SDS011;23615;51.506;7.678;2023-04-06T12:07:06;14.37;;;9.80;;
37777;SDS011;23615;51.506;7.678;2023-04-06T12:09:31;13.40;;;10.67;;
37777;SDS011;23615;51.506;7.678;2023-04-06T12:11:57;13.95;;;9.85;;
37777;SDS011;23615;51.506;7.678;2023-04-06T12:14:22;15.45;;;11.13;;
37777;SDS011;23615;51.506;7.678;2023-04-06T12:16:48;12.43;;;9.47;;
37777;SDS011;23615;51.506;7.678;2023-04-06T12:19:13;17.85;;;12.85;;
37777;SDS011;23615;51.506;7.678;2023-04-06T12:21:38;16.87;;;12.97;;
37777;SDS011;23615;51.506;7.678;2023-04-06T12:24:04;15.57;;;12.23;;
37777;SDS011;23615;51.506;7.678;2023-04-06T12:26:30;14.75;;;11.93;;
37777;SDS011;23615;51.506;7.678;2023-04-06T12:28:56;13.63;;;11.13;;
37777;SDS011;23615;51.506;7.678;2023-04-06T12:31:27;17.85;;;12.90;;
37777;SDS011;23615;51.506;7.678;2023-04-06T12:33:53;15.73;;;11.65;;
37777;SDS011;23615;51.506;7.678;2023-04-06T12:36:19;16.60;;;11.93;;
37777;SDS011;23615;51.506;7.678;2023-04-06T12:38:49;15.55;;;11.90;;
37777;SDS011;23615;51.506;7.678;2023-04-06T12:41:15;13.73;;;11.03;;
37777;SDS011;23615;51.506;7.678;2023-04-06T12:43:41;17.38;;;12.38;;
37777;SDS011;23615;51.506;7.678;2023-04-06T12:46:07;15.45;;;11.80;;
37777;SDS011;23615;51.506;7.678;2023-04-06T12:48:33;14.77;;;10.82;;
37777;SDS011;23615;51.506;7.678;2023-04-06T12:51:00;13.65;;;10.35;;
37777;SDS011;23615;51.506;7.678;2023-04-06T12:53:27;13.27;;;10.35;;
37777;SDS011;23615;51.506;7.678;2023-04-06T12:55:56;12.60;;;9.20;;
37777;SDS011;23615;51.506;7.678;2023-04-06T12:58:22;13.07;;;9.40;;
37777;SDS011;23615;51.506;7.678;2023-04-06T13:00:48;12.52;;;10.05;;
37777;SDS011;23615;51.506;7.678;2023-04-06T13:03:15;15.40;;;10.17;;
37777;SDS011;23615;51.506;7.678;2023-04-06T13:05:44;12.07;;;9.25;;
37777;SDS011;23615;51.506;7.678;2023-04-06T13:08:10;11.88;;;8.38;;
37777;SDS011;23615;51.506;7.678;2023-04-06T13:10:35;11.20;;;8.38;;
37777;SDS011;23615;51.506;7.678;2023-04-06T13:13:01;10.47;;;8.17;;
37777;SDS011;23615;51.506;7.678;2023-04-06T13:15:26;10.70;;;8.00;;
37777;SDS011;23615;51.506;7.678;2023-04-06T13:17:51;11.40;;;8.17;;
37777;SDS011;23615;51.506;7.678;2023-04-06T13:20:17;12.83;;;9.23;;
37777;SDS011;23615;51.506;7.678;2023-04-06T13:22:42;9.52;;;7.57;;
37777;SDS011;23615;51.506;7.678;2023-04-06T13:25:07;10.70;;;7.65;;
37777;SDS011;23615;51.506;7.678;2023-04-06T13:27:33;11.68;;;8.70;;
37777;SDS011;23615;51.506;7.678;2023-04-06T13:29:58;14.43;;;8.50;;
37777;SDS011;23615;51.506;7.678;2023-04-06T13:32:24;9.47;;;7.47;;
37777;SDS011;23615;51.506;7.678;2023-04-06T13:34:49;10.60;;;7.67;;
37777;SDS011;23615;51.506;7.678;2023-04-06T13:37:15;10.17;;;7.70;;
37777;SDS011;23615;51.506;7.678;2023-04-06T13:39:40;12.67;;;8.60;;
37777;SDS011;23615;51.506;7.678;2023-04-06T13:42:06;8.20;;;7.17;;
37777;SDS011;23615;51.506;7.678;2023-04-06T13:44:31;10.27;;;7.70;;
37777;SDS011;23615;51.506;7.678;2023-04-06T13:46:57;11.15;;;8.27;;
37777;SDS011;23615;51.506;7.678;2023-04-06T13:49:23;10.47;;;7.30;;
37777;SDS011;23615;51.506;7.678;2023-04-06T13:51:48;7.97;;;6.40;;
37777;SDS011;23615;51.506;7.678;2023-04-06T13:54:13;8.80;;;7.33;;
37777;SDS011;23615;51.506;7.678;2023-04-06T13:56:39;12.00;;;8.60;;
37777;SDS011;23615;51.506;7.678;2023-04-06T13:59:04;10.60;;;8.00;;
37777;SDS011;23615;51.506;7.678;2023-04-06T14:01:29;6.87;;;6.17;;
37777;SDS011;23615;51.506;7.678;2023-04-06T14:03:55;8.70;;;7.35;;
37777;SDS011;23615;51.506;7.678;2023-04-06T14:06:20;10.53;;;7.80;;
37777;SDS011;23615;51.506;7.678;2023-04-06T14:08:45;10.83;;;7.60;;
37777;SDS011;23615;51.506;7.678;2023-04-06T14:11:11;11.57;;;7.47;;
37777;SDS011;23615;51.506;7.678;2023-04-06T14:13:38;9.97;;;7.70;;
37777;SDS011;23615;51.506;7.678;2023-04-06T14:16:03;8.95;;;7.53;;
37777;SDS011;23615;51.506;7.678;2023-04-06T14:18:29;10.80;;;7.40;;
37777;SDS011;23615;51.506;7.678;2023-04-06T14:20:56;10.82;;;7.88;;
37777;SDS011;23615;51.506;7.678;2023-04-06T14:23:22;8.48;;;6.93;;
37777;SDS011;23615;51.506;7.678;2023-04-06T14:25:50;9.57;;;7.72;;
37777;SDS011;23615;51.506;7.678;2023-04-06T14:28:16;8.82;;;7.00;;
37777;SDS011;23615;51.506;7.678;2023-04-06T14:30:41;5.53;;;4.00;;
37777;SDS011;23615;51.506;7.678;2023-04-06T14:33:07;6.10;;;3.30;;
37777;SDS011;23615;51.506;7.678;2023-04-06T14:35:32;6.70;;;4.63;;
37777;SDS011;23615;51.506;7.678;2023-04-06T14:37:58;3.50;;;2.67;;
37777;SDS011;23615;51.506;7.678;2023-04-06T14:40:23;4.07;;;3.10;;
37777;SDS011;23615;51.506;7.678;2023-04-06T14:42:51;7.45;;;4.82;;